sensor_id;sensor_type;location;lat;lon;timestamp;temperature;humidity
10386;DHT22;34307;51.332;12.334;2024-01-30T06:34:00;4.30;1.00
10386;DHT22;34307;51.332;12.334;2024-01-30T06:36:28;4.20;1.00
10386;DHT22;34307;51.332;12.334;2024-01-30T06:38:57;4.20;1.00
10386;DHT22;34307;51.332;12.334;2024-01-30T06:41:26;4.30;1.00
10386;DHT22;34307;51.332;12.334;2024-01-30T06:43:54;4.30;1.00
10386;DHT22;34307;51.332;12.334;2024-01-30T06:46:22;4.40;1.00
10386;DHT22;34307;51.332;12.334;2024-01-30T06:48:50;4.50;1.00
10386;DHT22;34307;51.332;12.334;2024-01-30T06:51:21;4.60;1.00
10386;DHT22;34307;51.332;12.334;2024-01-30T06:53:49;4.60;1.00
10386;DHT22;34307;51.332;12.334;2024-01-30T06:56:17;4.60;1.00
10386;DHT22;34307;51.332;12.334;2024-01-30T06:58:47;4.70;1.00
10386;DHT22;34307;51.332;12.334;2024-01-30T07:01:16;4.60;1.00
10386;DHT22;34307;51.332;12.334;2024-01-30T07:03:44;4.60;1.00
10386;DHT22;34307;51.332;12.334;2024-01-30T07:06:12;4.60;1.00
10386;DHT22;34307;51.332;12.334;2024-01-30T07:08:42;4.60;1.00
10386;DHT22;34307;51.332;12.334;2024-01-30T07:11:10;4.60;1.00
10386;DHT22;34307;51.332;12.334;2024-01-30T11:58:46;13.70;99.90
10386;DHT22;34307;51.332;12.334;2024-01-30T12:01:16;14.40;99.90
10386;DHT22;34307;51.332;12.334;2024-01-30T12:03:49;14.10;99.90
10386;DHT22;34307;51.332;12.334;2024-01-30T12:06:18;13.90;99.90
10386;DHT22;34307;51.332;12.334;2024-01-30T12:08:59;14.10;99.90
10386;DHT22;34307;51.332;12.334;2024-01-30T12:11:46;14.60;99.90
10386;DHT22;34307;51.332;12.334;2024-01-30T12:14:16;15.60;99.90
10386;DHT22;34307;51.332;12.334;2024-01-30T12:16:48;15.70;99.90
10386;DHT22;34307;51.332;12.334;2024-01-30T12:25:38;15.40;99.90
10386;DHT22;34307;51.332;12.334;2024-01-30T12:28:09;15.00;99.90
10386;DHT22;34307;51.332;12.334;2024-01-30T12:30:40;14.90;99.90
10386;DHT22;34307;51.332;12.334;2024-01-30T12:33:16;14.80;99.90
10386;DHT22;34307;51.332;12.334;2024-01-30T12:35:47;14.50;99.90
10386;DHT22;34307;51.332;12.334;2024-01-30T12:38:29;14.20;99.90
10386;DHT22;34307;51.332;12.334;2024-01-30T12:40:59;15.00;99.90
10386;DHT22;34307;51.332;12.334;2024-01-30T12:43:27;15.50;99.90
10386;DHT22;34307;51.332;12.334;2024-01-30T12:46:05;15.80;99.90
10386;DHT22;34307;51.332;12.334;2024-01-30T12:48:33;15.90;99.90
10386;DHT22;34307;51.332;12.334;2024-01-30T12:51:03;15.90;99.90
10386;DHT22;34307;51.332;12.334;2024-01-30T12:53:32;16.40;99.90
10386;DHT22;34307;51.332;12.334;2024-01-30T12:56:02;16.90;99.90
10386;DHT22;34307;51.332;12.334;2024-01-30T13:04:49;16.10;99.90
10386;DHT22;34307;51.332;12.334;2024-01-30T13:07:17;16.80;99.90
10386;DHT22;34307;51.332;12.334;2024-01-30T13:09:47;17.80;99.90
10386;DHT22;34307;51.332;12.334;2024-01-30T13:12:24;18.30;99.90
10386;DHT22;34307;51.332;12.334;2024-01-30T13:14:52;17.40;99.90
10386;DHT22;34307;51.332;12.334;2024-01-30T13:17:20;17.10;99.90
10386;DHT22;34307;51.332;12.334;2024-01-30T13:19:50;17.30;99.90
10386;DHT22;34307;51.332;12.334;2024-01-30T13:22:18;17.80;99.90
10386;DHT22;34307;51.332;12.334;2024-01-30T13:24:48;17.40;99.90
10386;DHT22;34307;51.332;12.334;2024-01-30T13:27:16;17.00;99.90
10386;DHT22;34307;51.332;12.334;2024-01-30T13:29:45;16.80;99.90
10386;DHT22;34307;51.332;12.334;2024-01-30T13:32:13;16.20;99.90
10386;DHT22;34307;51.332;12.334;2024-01-30T13:34:41;15.70;99.90
10386;DHT22;34307;51.332;12.334;2024-01-30T13:37:11;15.40;99.90
10386;DHT22;34307;51.332;12.334;2024-01-30T13:39:40;16.00;99.90
10386;DHT22;34307;51.332;12.334;2024-01-30T13:42:08;16.50;99.90
10386;DHT22;34307;51.332;12.334;2024-01-30T13:44:36;16.10;99.90
10386;DHT22;34307;51.332;12.334;2024-01-30T13:47:05;15.40;99.90
10386;DHT22;34307;51.332;12.334;2024-01-30T13:49:33;14.80;99.90
10386;DHT22;34307;51.332;12.334;2024-01-30T13:52:02;14.80;99.90
10386;DHT22;34307;51.332;12.334;2024-01-30T13:54:33;14.50;99.90
10386;DHT22;34307;51.332;12.334;2024-01-30T13:57:01;14.80;99.90
10386;DHT22;34307;51.332;12.334;2024-01-30T13:59:30;15.00;99.90
10386;DHT22;34307;51.332;12.334;2024-01-30T14:01:59;14.40;99.90
10386;DHT22;34307;51.332;12.334;2024-01-30T14:04:28;14.20;99.90
10386;DHT22;34307;51.332;12.334;2024-01-30T14:06:56;13.70;99.90
10386;DHT22;34307;51.332;12.334;2024-01-30T14:09:32;13.30;99.90
10386;DHT22;34307;51.332;12.334;2024-01-30T14:12:01;13.10;99.90
10386;DHT22;34307;51.332;12.334;2024-01-30T14:14:29;13.00;99.90
10386;DHT22;34307;51.332;12.334;2024-01-30T14:16:59;13.10;99.90
10386;DHT22;34307;51.332;12.334;2024-01-30T14:19:27;12.90;99.90
10386;DHT22;34307;51.332;12.334;2024-01-30T14:21:56;12.90;99.90
10386;DHT22;34307;51.332;12.334;2024-01-30T14:24:24;12.80;99.90
10386;DHT22;34307;51.332;12.334;2024-01-30T14:26:54;12.80;99.90
10386;DHT22;34307;51.332;12.334;2024-01-30T14:29:23;12.80;99.90
10386;DHT22;34307;51.332;12.334;2024-01-30T14:31:51;12.60;99.90
10386;DHT22;34307;51.332;12.334;2024-01-30T14:34:22;12.60;99.90
10386;DHT22;34307;51.332;12.334;2024-01-30T14:36:50;12.40;99.90
10386;DHT22;34307;51.332;12.334;2024-01-30T15:50:33;10.40;99.90
10386;DHT22;34307;51.332;12.334;2024-01-30T15:53:01;10.40;99.90
10386;DHT22;34307;51.332;12.334;2024-01-30T15:55:29;10.40;99.90
10386;DHT22;34307;51.332;12.334;2024-01-30T15:57:58;10.50;99.90
10386;DHT22;34307;51.332;12.334;2024-01-30T16:00:27;10.50;99.90
10386;DHT22;34307;51.332;12.334;2024-01-30T16:02:56;10.60;99.90
10386;DHT22;34307;51.332;12.334;2024-01-30T16:05:25;10.50;99.90
10386;DHT22;34307;51.332;12.334;2024-01-30T16:07:56;10.60;99.90
10386;DHT22;34307;51.332;12.334;2024-01-30T16:10:33;10.50;99.90
10386;DHT22;34307;51.332;12.334;2024-01-30T16:13:01;10.50;99.90
10386;DHT22;34307;51.332;12.334;2024-01-30T16:15:30;10.50;99.90
10386;DHT22;34307;51.332;12.334;2024-01-30T16:17:58;10.40;99.90
10386;DHT22;34307;51.332;12.334;2024-01-30T16:20:29;10.30;99.90
10386;DHT22;34307;51.332;12.334;2024-01-30T16:22:59;10.30;1.00
10386;DHT22;34307;51.332;12.334;2024-01-30T16:25:27;10.30;1.00
10386;DHT22;34307;51.332;12.334;2024-01-30T16:27:56;10.20;1.00
10386;DHT22;34307;51.332;12.334;2024-01-30T16:30:24;10.20;1.00
10386;DHT22;34307;51.332;12.334;2024-01-30T16:32:53;10.10;1.00
10386;DHT22;34307;51.332;12.334;2024-01-30T16:35:21;10.00;1.00
10386;DHT22;34307;51.332;12.334;2024-01-30T16:38:11;9.90;1.00
10386;DHT22;34307;51.332;12.334;2024-01-30T16:40:39;9.80;99.90
10386;DHT22;34307;51.332;12.334;2024-01-30T16:43:11;9.80;1.00
10386;DHT22;34307;51.332;12.334;2024-01-30T16:45:40;9.80;1.00
10386;DHT22;34307;51.332;12.334;2024-01-30T16:48:08;9.80;1.00
10386;DHT22;34307;51.332;12.334;2024-01-30T16:50:41;9.60;1.00
10386;DHT22;34307;51.332;12.334;2024-01-30T16:53:12;9.60;1.00
10386;DHT22;34307;51.332;12.334;2024-01-30T16:55:42;9.50;44.50
10386;DHT22;34307;51.332;12.334;2024-01-30T16:58:10;9.50;99.90
10386;DHT22;34307;51.332;12.334;2024-01-30T17:00:39;9.50;99.90
10386;DHT22;34307;51.332;12.334;2024-01-30T17:03:07;9.40;99.90
10386;DHT22;34307;51.332;12.334;2024-01-30T17:05:36;9.40;1.00
